Time;durP1;ratioP1;P1;durP2;ratioP2;P2;SDS_P1;SDS_P2;PMS_P1;PMS_P2;Temp;Humidity;BMP_temperature;BMP_pressure;BME280_temperature;BME280_humidity;BME280_pressure;Samples;Min_cycle;Max_cycle;Signal;HPM_P1;HPM_P2
2021/10/14 00:00:26;;;;;;;;;;;;;;;4.82;83.42;97914.63;30001;982;1885;-64
2021/10/14 00:00:57;;;;;;;;;;;;;;;4.83;83.53;97911.72;30001;982;1880;-57
2021/10/14 00:01:28;;;;;;;;;;;;;;;4.85;83.70;97908.81;30001;982;1858;-59
2021/10/14 00:01:58;;;;;;;;;;;;;;;4.85;83.22;97914.19;30001;982;1881;-57
2021/10/14 00:02:29;;;;;;;;;;;;;;;4.86;83.38;97915.78;30001;983;1884;-59
2021/10/14 00:03:00;;;;;;;;;;;;;;;4.84;83.41;97907.97;30001;983;1880;-57
2021/10/14 00:03:31;;;;;;;;;;;;;;;4.83;83.47;97910.91;30001;983;1884;-57
2021/10/14 00:04:02;;;;;;;;;;;;;;;4.80;83.71;97909.50;30001;983;1879;-57
2021/10/14 00:04:33;;;;;;;;;;;;;;;4.81;83.36;97918.38;30001;983;1884;-57
2021/10/14 00:05:04;;;;;;;;;;;;;;;4.82;83.64;97920.03;30001;983;1854;-57
2021/10/14 00:05:35;;;;;;;;;;;;;;;4.83;83.21;97911.72;30001;983;1884;-56
2021/10/14 00:06:06;;;;;;;;;;;;;;;4.85;83.35;97908.81;30001;983;1880;-58
2021/10/14 00:06:37;;;;;;;;;;;;;;;4.85;82.95;97909.59;30001;983;1884;-58
2021/10/14 00:07:08;;;;;;;;;;;;;;;4.87;83.08;97901.28;30001;983;1880;-57
2021/10/14 00:07:39;;;;;;;;;;;;;;;4.91;83.10;97907.84;30001;982;1858;-63
2021/10/14 00:08:09;;;;;;;;;;;;;;;4.94;82.85;97912.75;30001;987;1854;-57
2021/10/14 00:08:40;;;;;;;;;;;;;;;4.93;82.60;97909.25;30001;982;1885;-58
2021/10/14 00:09:12;;;;;;;;;;;;;;;4.93;82.60;97903.88;30001;982;1881;-57
2021/10/14 00:09:42;;;;;;;;;;;;;;;4.94;82.34;97896.63;30001;982;1885;-57
2021/10/14 00:10:13;;;;;;;;;;;;;;;4.96;82.17;97902.59;30001;983;1879;-57
2021/10/14 00:10:44;;;;;;;;;;;;;;;4.96;81.96;97900.72;30001;983;1884;-58
2021/10/14 00:11:15;;;;;;;;;;;;;;;4.95;81.92;97898.28;30001;983;1879;-58
2021/10/14 00:11:45;;;;;;;;;;;;;;;4.96;82.22;97899.91;30001;983;1884;-56
2021/10/14 00:12:16;;;;;;;;;;;;;;;4.96;82.54;97894.53;30001;983;1880;-57
2021/10/14 00:12:47;;;;;;;;;;;;;;;4.95;82.41;97898.28;30001;983;1884;-57
2021/10/14 00:13:18;;;;;;;;;;;;;;;4.96;82.57;97897.22;30001;983;1853;-57
2021/10/14 00:13:48;;;;;;;;;;;;;;;4.96;82.44;97897.22;30001;983;1884;-57
2021/10/14 00:14:19;;;;;;;;;;;;;;;5.00;82.55;97895.72;30001;983;1880;-57
2021/10/14 00:14:50;;;;;;;;;;;;;;;5.05;81.81;97895.84;30001;983;1885;-58
2021/10/14 00:15:21;;;;;;;;;;;;;;;5.06;81.75;97897.47;30001;982;1880;-57
2021/10/14 00:15:52;;;;;;;;;;;;;;;5.04;81.78;97902.25;30001;982;1884;-57
2021/10/14 00:16:23;;;;;;;;;;;;;;;5.02;82.46;97896.28;30001;982;1880;-57
2021/10/14 00:16:54;;;;;;;;;;;;;;;4.98;82.43;97901.31;30001;982;1885;-57
2021/10/14 00:17:25;;;;;;;;;;;;;;;4.96;82.59;97897.22;30001;982;1880;-58
2021/10/14 00:17:57;;;;;;;;;;;;;;;4.97;82.36;97897.00;30001;983;1858;-58
2021/10/14 00:18:28;;;;;;;;;;;;;;;4.96;82.40;97900.72;30001;983;1880;-57
2021/10/14 00:19:00;;;;;;;;;;;;;;;4.98;82.35;97900.50;30001;983;1884;-57
2021/10/14 00:19:31;;;;;;;;;;;;;;;4.95;82.77;97904.47;30001;983;1880;-58
2021/10/14 00:20:03;;;;;;;;;;;;;;;4.98;82.70;97900.50;30001;983;1884;-58
2021/10/14 00:20:35;;;;;;;;;;;;;;;5.03;82.38;97896.06;30001;983;1880;-57
2021/10/14 00:21:05;;;;;;;;;;;;;;;5.05;81.95;97901.22;30001;983;1884;-57
2021/10/14 00:21:36;;;;;;;;;;;;;;;5.04;81.97;97902.25;30001;983;1854;-58
2021/10/14 00:22:07;;;;;;;;;;;;;;;5.03;82.00;97900.62;30001;982;1885;-56
2021/10/14 00:22:38;;;;;;;;;;;;;;;5.00;82.37;97896.53;30001;982;1880;-57
2021/10/14 00:23:09;;;;;;;;;;;;;;;4.98;82.73;97897.81;30001;982;1884;-57
2021/10/14 00:23:40;;;;;;;;;;;;;;;4.95;82.80;97898.28;30001;982;1880;-58
2021/10/14 00:24:11;;;;;;;;;;;;;;;4.95;82.93;97899.09;30001;982;1885;-57
2021/10/14 00:24:41;;;;;;;;;;;;;;;4.94;83.15;97897.44;30001;982;1880;-57
2021/10/14 00:25:12;;;;;;;;;;;;;;;4.95;83.04;97906.34;30001;983;1858;-57
2021/10/14 00:25:43;;;;;;;;;;;;;;;4.96;83.00;97900.72;30001;983;1880;-58
2021/10/14 00:26:14;;;;;;;;;;;;;;;5.01;82.41;97897.34;30001;965;1819;-57
2021/10/14 00:26:44;;;;;;;;;;;;;;;5.03;82.16;97900.62;30001;983;1880;-57
2021/10/14 00:27:15;;;;;;;;;;;;;;;5.04;81.87;97902.25;30001;983;1884;-58
2021/10/14 00:27:46;;;;;;;;;;;;;;;5.03;82.35;97900.62;30001;983;1880;-57
2021/10/14 00:28:19;;;;;;;;;;;;;;;5.01;82.32;97908.09;30001;983;1885;-58
2021/10/14 00:28:49;;;;;;;;;;;;;;;5.02;82.69;97905.19;30001;983;1854;-57
2021/10/14 00:29:20;;;;;;;;;;;;;;;5.04;82.48;97902.25;30001;982;1885;-57
2021/10/14 00:29:51;;;;;;;;;;;;;;;5.02;82.19;97899.81;30001;982;1880;-58
2021/10/14 00:30:22;;;;;;;;;;;;;;;5.03;82.12;97906.00;30001;982;1885;-57
2021/10/14 00:30:53;;;;;;;;;;;;;;;5.03;82.48;97901.44;30001;982;1880;-57
2021/10/14 00:31:23;;;;;;;;;;;;;;;5.03;82.09;97896.06;30001;982;1884;-58
2021/10/14 00:31:54;;;;;;;;;;;;;;;5.01;82.21;97902.72;30001;982;1881;-57
2021/10/14 00:32:25;;;;;;;;;;;;;;;4.98;82.00;97905.87;30001;982;1858;-63
2021/10/14 00:32:56;;;;;;;;;;;;;;;4.95;82.18;97901.78;30001;983;1880;-64
2021/10/14 00:33:27;;;;;;;;;;;;;;;4.95;82.31;97906.34;30001;983;1884;-64
2021/10/14 00:33:57;;;;;;;;;;;;;;;4.94;82.78;97902.81;30001;983;1879;-58
2021/10/14 00:34:28;;;;;;;;;;;;;;;4.92;82.45;97910.31;30001;983;1884;-57
2021/10/14 00:34:59;;;;;;;;;;;;;;;4.89;82.83;97912.63;30001;983;1880;-57
2021/10/14 00:35:30;;;;;;;;;;;;;;;4.86;83.09;97908.53;30002;815;1013;-58
2021/10/14 00:36:00;;;;;;;;;;;;;;;4.84;83.17;97913.34;30001;983;1880;-58
2021/10/14 00:36:31;;;;;;;;;;;;;;;4.83;83.29;97910.91;30001;983;1858;-57
2021/10/14 00:37:02;;;;;;;;;;;;;;;4.83;83.10;97913.59;30001;982;1880;-59
2021/10/14 00:37:34;;;;;;;;;;;;;;;4.85;83.31;97908.81;30001;982;1885;-57
2021/10/14 00:38:04;;;;;;;;;;;;;;;4.86;83.45;97911.22;30001;982;1880;-57
2021/10/14 00:38:35;;;;;;;;;;;;;;;4.87;83.01;97906.66;30001;982;1885;-57
2021/10/14 00:39:06;;;;;;;;;;;;;;;4.88;83.17;97909.12;30001;982;1854;-62
2021/10/14 00:39:37;;;;;;;;;;;;;;;4.87;83.44;97906.66;30001;982;1885;-58
2021/10/14 00:40:09;;;;;;;;;;;;;;;4.86;83.80;97913.09;30001;982;1881;-57
2021/10/14 00:40:40;;;;;;;;;;;;;;;4.85;83.62;97908.81;30001;983;1884;-58
2021/10/14 00:41:11;;;;;;;;;;;;;;;4.84;83.56;97907.97;30001;983;1880;-58
2021/10/14 00:41:42;;;;;;;;;;;;;;;4.85;83.36;97908.81;30001;983;1884;-57
2021/10/14 00:42:13;;;;;;;;;;;;;;;4.84;83.30;97907.16;30001;983;1787;-57
2021/10/14 00:42:44;;;;;;;;;;;;;;;4.84;83.41;97907.16;30001;983;1858;-56
2021/10/14 00:43:15;;;;;;;;;;;;;;;4.86;83.62;97913.91;30001;983;1880;-64
2021/10/14 00:43:46;;;;;;;;;;;;;;;4.88;83.10;97913.69;30001;983;1884;-57
2021/10/14 00:44:16;;;;;;;;;;;;;;;4.88;83.22;97913.69;30001;983;1880;-56
2021/10/14 00:44:49;;;;;;;;;;;;;;;4.90;82.99;97906.22;30001;982;1885;-57
2021/10/14 00:45:20;;;;;;;;;;;;;;;4.90;82.47;97906.22;30001;982;1880;-58
2021/10/14 00:45:51;;;;;;;;;;;;;;;4.91;82.51;97907.84;30001;982;1885;-58
2021/10/14 00:46:22;;;;;;;;;;;;;;;4.90;82.68;97906.22;30001;974;1895;-57
2021/10/14 00:46:54;;;;;;;;;;;;;;;4.89;82.85;97904.56;30001;982;1885;-58
2021/10/14 00:47:26;;;;;;;;;;;;;;;4.88;82.87;97908.31;30001;982;1881;-57
2021/10/14 00:47:57;;;;;;;;;;;;;;;4.89;82.82;97904.56;30001;983;1858;-65
2021/10/14 00:48:28;;;;;;;;;;;;;;;4.90;82.83;97904.34;30001;983;1879;-57
2021/10/14 00:48:59;;;;;;;;;;;;;;;4.90;82.76;97907.03;30001;983;1884;-57
2021/10/14 00:49:30;;;;;;;;;;;;;;;4.88;82.79;97901.06;30001;983;1880;-63
2021/10/14 00:50:00;;;;;;;;;;;;;;;4.86;83.09;97905.03;30001;983;1884;-57
2021/10/14 00:50:32;;;;;;;;;;;;;;;4.85;83.44;97906.13;30001;983;1854;-57
2021/10/14 00:51:02;;;;;;;;;;;;;;;4.85;83.25;97908.81;30001;983;1858;-58
2021/10/14 00:51:33;;;;;;;;;;;;;;;4.83;83.61;97900.16;30001;983;1854;-58
2021/10/14 00:52:04;;;;;;;;;;;;;;;4.81;83.24;97908.44;30001;982;1858;-58
2021/10/14 00:52:36;;;;;;;;;;;;;;;4.80;83.38;97909.50;30001;982;1880;-57
2021/10/14 00:53:08;;;;;;;;;;;;;;;4.82;83.37;97903.88;30001;982;1884;-64
2021/10/14 00:53:39;;;;;;;;;;;;;;;4.84;83.30;97901.78;30001;982;1880;-58
2021/10/14 00:54:11;;;;;;;;;;;;;;;4.84;83.32;97901.78;30001;982;1885;-58
2021/10/14 00:54:43;;;;;;;;;;;;;;;4.83;83.43;97902.84;30001;983;1880;-58
2021/10/14 00:55:14;;;;;;;;;;;;;;;4.84;83.19;97896.41;30001;983;1884;-57
2021/10/14 00:55:45;;;;;;;;;;;;;;;4.84;83.42;97901.78;30001;983;1880;-58
2021/10/14 00:56:16;;;;;;;;;;;;;;;4.84;82.91;97905.28;30001;983;1884;-57
2021/10/14 00:56:47;;;;;;;;;;;;;;;4.83;83.04;97897.47;30001;983;1880;-57
2021/10/14 00:57:19;;;;;;;;;;;;;;;4.83;83.21;97900.97;30001;983;1858;-58
2021/10/14 00:57:50;;;;;;;;;;;;;;;4.85;83.01;97898.03;30001;983;1880;-57
2021/10/14 00:58:21;;;;;;;;;;;;;;;4.86;82.74;97902.34;30001;983;1885;-59
2021/10/14 00:58:52;;;;;;;;;;;;;;;4.86;82.70;97895.09;30001;983;1880;-63
2021/10/14 00:59:23;;;;;;;;;;;;;;;4.88;82.53;97894.88;30001;983;1885;-57
2021/10/14 00:59:54;;;;;;;;;;;;;;;4.87;82.72;97901.28;30001;982;1880;-58
2021/10/14 01:00:24;;;;;;;;;;;;;;;4.85;82.46;97895.34;30001;982;1858;-58
2021/10/14 01:00:56;;;;;;;;;;;;;;;4.83;82.54;97894.75;30001;982;1880;-58
2021/10/14 01:01:26;;;;;;;;;;;;;;;4.83;82.80;97897.47;30001;982;1859;-58
2021/10/14 01:01:57;;;;;;;;;;;;;;;4.84;82.95;97899.09;30001;982;1880;-58
2021/10/14 01:02:28;;;;;;;;;;;;;;;4.84;82.62;97896.41;30001;983;1884;-58
2021/10/14 01:02:59;;;;;;;;;;;;;;;4.80;82.65;97895.22;30001;983;1879;-64
2021/10/14 01:03:30;;;;;;;;;;;;;;;4.78;83.00;97891.94;30001;983;1837;-58
2021/10/14 01:04:03;;;;;;;;;;;;;;;4.72;83.19;97899.88;30001;983;1880;-58
2021/10/14 01:04:34;;;;;;;;;;;;;;;4.71;83.14;97898.25;30001;983;1884;-58
2021/10/14 01:05:05;;;;;;;;;;;;;;;4.70;83.63;97896.59;30001;983;1880;-58
2021/10/14 01:05:36;;;;;;;;;;;;;;;4.71;83.25;97898.25;30001;983;1884;-58
2021/10/14 01:06:07;;;;;;;;;;;;;;;4.71;83.21;97892.88;30001;983;1880;-58
2021/10/14 01:06:41;;;;;;;;;;;;;;;4.74;83.16;97896.16;30001;983;1858;-64
2021/10/14 01:07:12;;;;;;;;;;;;;;;4.74;83.47;97894.28;30001;982;1854;-58
2021/10/14 01:07:42;;;;;;;;;;;;;;;4.72;83.13;97894.50;30001;982;1885;-57
2021/10/14 01:08:13;;;;;;;;;;;;;;;4.69;83.87;97899.53;30001;982;1880;-58
2021/10/14 01:08:44;;;;;;;;;;;;;;;4.66;83.89;97900.81;30001;982;1885;-58
2021/10/14 01:09:16;;;;;;;;;;;;;;;4.63;84.32;97895.88;30001;982;1880;-58
2021/10/14 01:09:47;;;;;;;;;;;;;;;4.63;83.86;97895.88;30001;983;1884;-58
2021/10/14 01:10:18;;;;;;;;;;;;;;;4.64;83.89;97896.69;30001;983;1880;-58
2021/10/14 01:10:48;;;;;;;;;;;;;;;4.64;83.87;97894.84;30001;983;1884;-58
2021/10/14 01:11:20;;;;;;;;;;;;;;;4.64;84.10;97897.53;30001;983;1880;-64
2021/10/14 01:11:51;;;;;;;;;;;;;;;4.65;83.84;97899.16;30001;983;1884;-59
2021/10/14 01:12:22;;;;;;;;;;;;;;;4.67;84.00;97897.06;30001;983;1854;-57
2021/10/14 01:12:53;;;;;;;;;;;;;;;4.68;83.78;97897.87;30001;983;1884;-58
2021/10/14 01:13:24;;;;;;;;;;;;;;;4.69;83.92;97897.66;30001;983;1880;-57
2021/10/14 01:13:55;;;;;;;;;;;;;;;4.68;83.79;97904.06;30001;983;1884;-58
2021/10/14 01:14:26;;;;;;;;;;;;;;;4.71;83.81;97903.63;30001;983;1880;-58
2021/10/14 01:14:57;;;;;;;;;;;;;;;4.71;84.02;97898.25;30001;982;1885;-58
2021/10/14 01:15:27;;;;;;;;;;;;;;;4.70;84.06;97901.97;30001;982;1786;-58
2021/10/14 01:15:58;;;;;;;;;;;;;;;4.69;83.84;97900.34;30001;982;1884;-58
2021/10/14 01:16:29;;;;;;;;;;;;;;;4.70;83.98;97901.16;30001;982;1880;-58
2021/10/14 01:17:00;;;;;;;;;;;;;;;4.68;84.03;97903.25;30001;982;1885;-57
2021/10/14 01:17:31;;;;;;;;;;;;;;;4.68;84.08;97901.38;30001;983;1853;-57
2021/10/14 01:18:02;;;;;;;;;;;;;;;4.67;84.02;97905.13;30001;983;1884;-57
2021/10/14 01:18:33;;;;;;;;;;;;;;;4.69;83.83;97904.91;30001;983;1880;-58
2021/10/14 01:19:04;;;;;;;;;;;;;;;4.71;83.76;97908.19;30001;983;1884;-58
2021/10/14 01:19:39;;;;;;;;;;;;;;;4.71;83.87;97902.81;30001;983;1880;-58
2021/10/14 01:20:11;;;;;;;;;;;;;;;4.75;83.67;97909.34;30001;982;1849;-59
2021/10/14 01:20:42;;;;;;;;;;;;;;;4.77;83.75;97918.00;30001;983;1880;-57
2021/10/14 01:21:14;;;;;;;;;;;;;;;4.79;83.41;97915.09;30001;983;1884;-57
2021/10/14 01:21:45;;;;;;;;;;;;;;;4.80;83.48;97908.66;30001;983;1880;-58
2021/10/14 01:22:15;;;;;;;;;;;;;;;4.82;83.18;97914.63;30001;982;1858;-57
2021/10/14 01:22:47;;;;;;;;;;;;;;;4.82;83.39;97910.09;30001;982;1880;-58
2021/10/14 01:23:17;;;;;;;;;;;;;;;4.84;83.03;97902.59;30001;982;1885;-57
2021/10/14 01:23:48;;;;;;;;;;;;;;;4.85;82.98;97911.50;30001;982;1854;-58
2021/10/14 01:24:20;;;;;;;;;;;;;;;4.85;83.22;97914.19;30001;982;1885;-58
2021/10/14 01:24:50;;;;;;;;;;;;;;;4.83;83.35;97909.03;30001;983;1853;-58
2021/10/14 01:25:21;;;;;;;;;;;;;;;4.82;83.13;97915.47;30001;983;1884;-58
2021/10/14 01:25:52;;;;;;;;;;;;;;;4.82;83.45;97906.56;30001;983;1880;-58
2021/10/14 01:26:23;;;;;;;;;;;;;;;4.83;83.30;97916.28;30001;983;1884;-57
2021/10/14 01:26:54;;;;;;;;;;;;;;;4.81;83.36;97910.31;30001;983;1880;-58
2021/10/14 01:27:27;;;;;;;;;;;;;;;4.79;83.30;97907.84;30001;983;1884;-57
2021/10/14 01:27:58;;;;;;;;;;;;;;;4.80;83.20;97911.34;30001;983;1853;-59
2021/10/14 01:28:29;;;;;;;;;;;;;;;4.79;83.09;97909.72;30001;983;1884;-57
2021/10/14 01:29:01;;;;;;;;;;;;;;;4.77;83.03;97907.25;30001;982;1854;-58
2021/10/14 01:29:31;;;;;;;;;;;;;;;4.75;83.28;97903.97;30001;982;1885;-59
2021/10/14 01:30:03;;;;;;;;;;;;;;;4.74;83.65;97901.53;30001;982;1880;-58
2021/10/14 01:30:34;;;;;;;;;;;;;;;4.74;83.36;97904.22;30001;982;1885;-57
2021/10/14 01:31:05;;;;;;;;;;;;;;;4.74;83.59;97912.28;30001;982;1880;-58
2021/10/14 01:31:36;;;;;;;;;;;;;;;4.71;83.25;97908.19;30001;982;1885;-58
2021/10/14 01:32:07;;;;;;;;;;;;;;;4.68;83.54;97904.06;30001;982;1881;-58
2021/10/14 01:32:38;;;;;;;;;;;;;;;4.65;83.65;97901.03;30001;983;1884;-59
2021/10/14 01:33:10;;;;;;;;;;;;;;;4.62;83.87;97901.47;30001;983;1880;-58
2021/10/14 01:33:41;;;;;;;;;;;;;;;4.61;84.00;97905.22;30001;983;1858;-58
2021/10/14 01:34:14;;;;;;;;;;;;;;;4.62;84.35;97899.63;30001;983;1880;-57
2021/10/14 01:34:45;;;;;;;;;;;;;;;4.62;84.15;97902.31;30001;983;1884;-58
2021/10/14 01:35:19;;;;;;;;;;;;;;;4.63;84.18;97893.19;30001;983;1880;-58
2021/10/14 01:35:49;;;;;;;;;;;;;;;4.63;83.88;97893.19;30001;983;1884;-57
2021/10/14 01:36:20;;;;;;;;;;;;;;;4.61;84.16;97895.28;30001;983;1880;-58
2021/10/14 01:36:51;;;;;;;;;;;;;;;4.60;84.21;97896.34;30001;982;1885;-57
2021/10/14 01:37:22;;;;;;;;;;;;;;;4.61;84.16;97895.28;30001;982;1880;-58
2021/10/14 01:37:53;;;;;;;;;;;;;;;4.61;84.28;97889.91;30001;982;1858;-58
2021/10/14 01:38:24;;;;;;;;;;;;;;;4.63;84.35;97889.69;30001;982;1880;-58
2021/10/14 01:38:55;;;;;;;;;;;;;;;4.64;83.81;97889.47;30001;982;1884;-58
2021/10/14 01:39:25;;;;;;;;;;;;;;;4.66;83.58;97884.66;30001;982;1881;-58
2021/10/14 01:39:56;;;;;;;;;;;;;;;4.65;83.60;97888.41;30001;983;1884;-58
2021/10/14 01:40:27;;;;;;;;;;;;;;;4.64;83.42;97873.31;30001;983;1880;-58
2021/10/14 01:40:58;;;;;;;;;;;;;;;4.64;83.38;97885.94;30001;983;1884;-58
2021/10/14 01:41:29;;;;;;;;;;;;;;;4.61;83.48;97881.84;30001;983;1880;-59
2021/10/14 01:42:00;;;;;;;;;;;;;;;4.60;83.61;97882.91;30001;983;1884;-57
2021/10/14 01:42:31;;;;;;;;;;;;;;;4.60;83.52;97874.84;30001;983;1880;-58
2021/10/14 01:43:02;;;;;;;;;;;;;;;4.58;83.72;97871.56;30001;983;1858;-58
2021/10/14 01:43:34;;;;;;;;;;;;;;;4.58;83.69;97874.25;30001;983;1880;-59
2021/10/14 01:44:05;;;;;;;;;;;;;;;4.60;83.81;97879.41;30001;982;1859;-58
2021/10/14 01:44:35;;;;;;;;;;;;;;;4.61;83.97;97873.78;30001;982;1854;-57
2021/10/14 01:45:07;;;;;;;;;;;;;;;4.62;84.01;97877.28;30001;982;1858;-59
2021/10/14 01:45:37;;;;;;;;;;;;;;;4.61;83.96;97870.28;30001;982;1880;-58
2021/10/14 01:46:08;;;;;;;;;;;;;;;4.63;83.93;97874.37;30001;982;1885;-58
2021/10/14 01:46:41;;;;;;;;;;;;;;;4.64;83.87;97875.19;30001;982;1854;-58
2021/10/14 01:47:12;;;;;;;;;;;;;;;4.63;83.55;97871.69;30001;982;1885;-57
2021/10/14 01:47:42;;;;;;;;;;;;;;;4.63;83.77;97869.00;30001;983;1879;-58
2021/10/14 01:48:13;;;;;;;;;;;;;;;4.65;83.65;97872.28;30001;983;1884;-58
2021/10/14 01:48:44;;;;;;;;;;;;;;;4.65;83.49;97871.47;30001;983;1880;-58
2021/10/14 01:49:15;;;;;;;;;;;;;;;4.66;83.33;97873.09;30001;983;1884;-58
2021/10/14 01:49:46;;;;;;;;;;;;;;;4.64;83.42;97873.31;30001;983;1880;-57
2021/10/14 01:50:17;;;;;;;;;;;;;;;4.65;83.65;97872.28;30001;983;1884;-58
2021/10/14 01:50:48;;;;;;;;;;;;;;;4.65;83.63;97871.47;30001;983;1880;-57
2021/10/14 01:51:19;;;;;;;;;;;;;;;4.65;83.41;97877.66;30001;983;1884;-58
2021/10/14 01:51:50;;;;;;;;;;;;;;;4.67;83.69;97877.44;30001;982;1854;-59
2021/10/14 01:52:21;;;;;;;;;;;;;;;4.67;83.29;97875.56;30001;982;1885;-57
2021/10/14 01:52:52;;;;;;;;;;;;;;;4.69;83.45;97878.00;30001;982;1880;-57
2021/10/14 01:53:23;;;;;;;;;;;;;;;4.69;83.22;97876.16;30001;982;1885;-59
2021/10/14 01:53:53;;;;;;;;;;;;;;;4.70;83.34;97879.66;30001;982;1880;-58
2021/10/14 01:54:24;;;;;;;;;;;;;;;4.71;83.04;97881.28;30001;982;1885;-58
2021/10/14 01:54:55;;;;;;;;;;;;;;;4.72;83.25;97878.38;30001;983;1879;-58
2021/10/14 01:55:26;;;;;;;;;;;;;;;4.75;82.83;97876.28;30001;983;1884;-58
2021/10/14 01:55:57;;;;;;;;;;;;;;;4.76;82.96;97878.72;30001;983;1880;-57
2021/10/14 01:56:28;;;;;;;;;;;;;;;4.77;82.56;97876.88;30001;983;1884;-57
2021/10/14 01:56:59;;;;;;;;;;;;;;;4.76;82.56;97878.72;30001;983;1854;-57
2021/10/14 01:57:30;;;;;;;;;;;;;;;4.76;82.83;97883.28;30001;983;1884;-58
2021/10/14 01:58:00;;;;;;;;;;;;;;;4.76;82.58;97877.91;30001;983;1880;-58
2021/10/14 01:58:31;;;;;;;;;;;;;;;4.77;82.64;97875.00;30001;983;1884;-58
2021/10/14 01:59:02;;;;;;;;;;;;;;;4.77;82.93;97874.19;30001;983;1880;-58
2021/10/14 01:59:33;;;;;;;;;;;;;;;4.77;82.85;97871.50;30001;986;1875;-58
2021/10/14 02:00:04;;;;;;;;;;;;;;;4.76;83.22;97883.28;30001;982;1885;-58
2021/10/14 02:00:36;;;;;;;;;;;;;;;4.75;83.12;97881.66;30001;982;1880;-57
2021/10/14 02:01:07;;;;;;;;;;;;;;;4.76;83.22;97873.34;30001;982;1885;-57
2021/10/14 02:01:37;;;;;;;;;;;;;;;4.79;82.96;97874.75;30001;983;1880;-57
2021/10/14 02:02:08;;;;;;;;;;;;;;;4.80;82.88;97877.22;30001;983;1747;-58
2021/10/14 02:02:39;;;;;;;;;;;;;;;4.79;82.51;97882.84;30001;983;1853;-58
2021/10/14 02:03:11;;;;;;;;;;;;;;;4.77;82.86;97868.81;30001;983;1884;-59
2021/10/14 02:03:42;;;;;;;;;;;;;;;4.75;82.59;97871.72;30001;983;1880;-58
2021/10/14 02:04:13;;;;;;;;;;;;;;;4.75;82.83;97876.28;30001;983;1884;-58
2021/10/14 02:04:44;;;;;;;;;;;;;;;4.77;82.83;97874.19;30001;983;1880;-58
2021/10/14 02:05:15;;;;;;;;;;;;;;;4.79;82.86;97866.69;30001;983;1884;-57
2021/10/14 02:05:46;;;;;;;;;;;;;;;4.78;82.66;97868.56;30001;983;1880;-63
2021/10/14 02:06:17;;;;;;;;;;;;;;;4.78;82.73;97875.81;30001;983;1884;-58
2021/10/14 02:06:47;;;;;;;;;;;;;;;4.78;82.61;97873.94;30001;982;1880;-58
2021/10/14 02:07:18;;;;;;;;;;;;;;;4.77;82.66;97874.19;30001;982;1858;-57
2021/10/14 02:07:49;;;;;;;;;;;;;;;4.77;82.69;97871.50;30001;982;1880;-58
2021/10/14 02:08:20;;;;;;;;;;;;;;;4.76;82.75;97877.91;30001;982;1885;-57
2021/10/14 02:08:50;;;;;;;;;;;;;;;4.74;82.44;97880.84;30001;982;1880;-58
2021/10/14 02:09:21;;;;;;;;;;;;;;;4.72;82.89;97878.38;30001;983;1884;-57
2021/10/14 02:09:52;;;;;;;;;;;;;;;4.72;82.82;97883.75;30001;983;1879;-58
2021/10/14 02:10:23;;;;;;;;;;;;;;;4.71;82.75;97876.72;30001;983;1884;-58
2021/10/14 02:10:53;;;;;;;;;;;;;;;4.72;83.04;97873.00;30001;983;1880;-58
2021/10/14 02:11:24;;;;;;;;;;;;;;;4.74;82.80;97877.31;30001;983;1884;-57
2021/10/14 02:11:55;;;;;;;;;;;;;;;4.73;82.56;97868.44;30001;983;1880;-59
2021/10/14 02:12:26;;;;;;;;;;;;;;;4.73;82.77;97873.81;30001;983;1858;-58
2021/10/14 02:12:57;;;;;;;;;;;;;;;4.74;82.45;97877.31;30001;983;1880;-58
2021/10/14 02:13:28;;;;;;;;;;;;;;;4.71;82.73;97875.91;30001;983;1884;-57
2021/10/14 02:13:59;;;;;;;;;;;;;;;4.72;82.57;97873.00;30001;983;1880;-59
2021/10/14 02:14:31;;;;;;;;;;;;;;;4.70;82.65;97869.72;30001;982;1884;-58
2021/10/14 02:15:02;;;;;;;;;;;;;;;4.71;82.40;97874.03;30001;982;1880;-58
2021/10/14 02:15:33;;;;;;;;;;;;;;;4.71;82.54;97871.34;30001;982;1885;-57
2021/10/14 02:16:04;;;;;;;;;;;;;;;4.70;82.65;97872.41;30001;982;1881;-57
2021/10/14 02:16:35;;;;;;;;;;;;;;;4.70;82.43;97864.34;30001;982;1885;-59
2021/10/14 02:17:06;;;;;;;;;;;;;;;4.70;82.63;97875.09;30001;983;1880;-58
2021/10/14 02:17:37;;;;;;;;;;;;;;;4.71;82.70;97870.53;30001;983;1858;-57
2021/10/14 02:18:08;;;;;;;;;;;;;;;4.69;82.74;97865.41;30001;983;1880;-57
2021/10/14 02:18:39;;;;;;;;;;;;;;;4.70;82.77;97869.72;30001;983;1858;-57
2021/10/14 02:19:09;;;;;;;;;;;;;;;4.70;82.79;97863.53;30001;983;1880;-57
2021/10/14 02:19:40;;;;;;;;;;;;;;;4.68;83.11;97866.44;30001;983;1885;-58
2021/10/14 02:20:11;;;;;;;;;;;;;;;4.68;83.00;97869.13;30001;983;1880;-58
2021/10/14 02:20:42;;;;;;;;;;;;;;;4.67;83.26;97864.81;30001;983;1884;-58
2021/10/14 02:21:15;;;;;;;;;;;;;;;4.67;83.06;97863.97;30001;983;1880;-58
2021/10/14 02:21:46;;;;;;;;;;;;;;;4.64;82.84;97865.25;30001;982;1885;-58
2021/10/14 02:22:17;;;;;;;;;;;;;;;4.63;83.01;97863.62;30001;982;1880;-59
2021/10/14 02:22:47;;;;;;;;;;;;;;;4.61;83.38;97865.72;30001;982;1884;-58
2021/10/14 02:23:18;;;;;;;;;;;;;;;4.61;83.12;97871.09;30001;982;1880;-58
2021/10/14 02:23:49;;;;;;;;;;;;;;;4.61;83.26;97865.72;30001;982;1859;-58
2021/10/14 02:24:20;;;;;;;;;;;;;;;4.59;83.29;97857.06;30001;983;1880;-58
2021/10/14 02:24:51;;;;;;;;;;;;;;;4.59;83.34;97867.81;30001;983;1884;-57
2021/10/14 02:25:21;;;;;;;;;;;;;;;4.61;83.50;97870.28;30001;983;1880;-58
2021/10/14 02:25:52;;;;;;;;;;;;;;;4.61;83.17;97865.72;30001;983;1884;-58
2021/10/14 02:26:23;;;;;;;;;;;;;;;4.60;83.40;97868.63;30001;983;1880;-57
2021/10/14 02:26:54;;;;;;;;;;;;;;;4.57;83.39;97869.91;30001;983;1884;-59
2021/10/14 02:27:24;;;;;;;;;;;;;;;4.55;83.55;97869.31;30001;983;1853;-58
2021/10/14 02:27:55;;;;;;;;;;;;;;;4.54;83.45;97873.06;30001;983;1884;-58
2021/10/14 02:28:26;;;;;;;;;;;;;;;4.54;83.31;97870.38;30001;983;1880;-57
2021/10/14 02:28:57;;;;;;;;;;;;;;;4.53;83.82;97874.13;30001;983;1884;-57
2021/10/14 02:29:28;;;;;;;;;;;;;;;4.51;83.68;97870.84;30001;982;1880;-58
2021/10/14 02:29:58;;;;;;;;;;;;;;;4.50;84.07;97869.22;30001;982;1885;-57
2021/10/14 02:30:29;;;;;;;;;;;;;;;4.49;83.85;97875.66;30001;982;1880;-59
2021/10/14 02:31:00;;;;;;;;;;;;;;;4.48;83.89;97871.31;30001;982;1885;-58
2021/10/14 02:31:31;;;;;;;;;;;;;;;4.49;83.86;97877.53;30001;982;1881;-58
2021/10/14 02:32:03;;;;;;;;;;;;;;;4.50;84.08;97871.91;30001;983;1858;-59
2021/10/14 02:32:34;;;;;;;;;;;;;;;4.50;83.66;97869.22;30001;983;1880;-57
2021/10/14 02:33:05;;;;;;;;;;;;;;;4.50;83.76;97866.53;30001;983;1884;-58
2021/10/14 02:33:35;;;;;;;;;;;;;;;4.51;83.63;97867.31;30001;983;1880;-58
2021/10/14 02:34:07;;;;;;;;;;;;;;;4.50;83.88;97874.59;30001;983;1858;-59
2021/10/14 02:34:37;;;;;;;;;;;;;;;4.49;83.94;97872.97;30001;983;1854;-58
2021/10/14 02:35:09;;;;;;;;;;;;;;;4.47;83.83;97875.06;30001;983;1884;-58
2021/10/14 02:35:39;;;;;;;;;;;;;;;4.50;83.83;97873.78;30001;983;1880;-57
2021/10/14 02:36:10;;;;;;;;;;;;;;;4.50;83.90;97874.59;30001;968;1910;-57
2021/10/14 02:36:41;;;;;;;;;;;;;;;4.50;83.50;97869.22;30001;982;1880;-58
2021/10/14 02:37:12;;;;;;;;;;;;;;;4.48;83.64;97876.69;30001;982;1858;-58
2021/10/14 02:37:43;;;;;;;;;;;;;;;4.44;83.72;97870.12;30001;982;1880;-57
2021/10/14 02:38:14;;;;;;;;;;;;;;;4.41;83.62;97875.16;30001;982;1885;-58
2021/10/14 02:38:44;;;;;;;;;;;;;;;4.41;84.06;97870.59;30001;982;1881;-57
2021/10/14 02:39:15;;;;;;;;;;;;;;;4.38;83.92;97869.19;30001;982;1885;-57
2021/10/14 02:39:46;;;;;;;;;;;;;;;4.37;84.34;97870.22;30001;983;1853;-59
2021/10/14 02:40:17;;;;;;;;;;;;;;;4.35;84.36;97871.50;30001;983;1884;-58
2021/10/14 02:40:48;;;;;;;;;;;;;;;4.32;84.67;97878.16;30001;983;1880;-57
2021/10/14 02:41:18;;;;;;;;;;;;;;;4.29;84.72;97872.41;30001;983;1884;-57
2021/10/14 02:41:49;;;;;;;;;;;;;;;4.29;84.85;97877.78;30001;983;1880;-58
2021/10/14 02:42:20;;;;;;;;;;;;;;;4.29;84.97;97875.09;30001;983;1884;-57
2021/10/14 02:42:51;;;;;;;;;;;;;;;4.27;84.98;97869.97;30001;983;1849;-59
2021/10/14 02:43:22;;;;;;;;;;;;;;;4.25;84.93;97873.91;30001;983;1880;-58
2021/10/14 02:43:53;;;;;;;;;;;;;;;4.24;85.07;97869.59;30001;982;1876;-58
2021/10/14 02:44:23;;;;;;;;;;;;;;;4.25;84.96;97866.69;30001;982;1854;-58
2021/10/14 02:44:54;;;;;;;;;;;;;;;4.26;85.06;97872.88;30001;982;1876;-58
2021/10/14 02:45:25;;;;;;;;;;;;;;;4.24;84.86;97869.59;30001;982;1880;-58
2021/10/14 02:45:56;;;;;;;;;;;;;;;4.21;85.20;97875.41;30001;982;1876;-58
2021/10/14 02:46:27;;;;;;;;;;;;;;;4.20;85.42;97869.22;30001;982;1880;-58
2021/10/14 02:46:57;;;;;;;;;;;;;;;4.21;85.53;97870.03;30001;983;1875;-58
2021/10/14 02:47:28;;;;;;;;;;;;;;;4.22;85.39;97867.13;30001;983;1879;-57
2021/10/14 02:47:59;;;;;;;;;;;;;;;4.23;84.91;97873.31;30001;983;1849;-58